Avon, Ohio
Current Conditions -  °F | °C
As of 7:51 AM on Friday 24 Oct 2014 (Local Time) from KCLE Reporting Station
Broken Clouds Broken Clouds  
Wind Chill:   Ceiling: 21000
Heat Index:   Visibility: 8mi
Dew Point:   Wind: 6mph
Humidity: 89%   Direction: 210°SSW
Pressure: 30.12"   Gusts: NA
Location:  41.47°N, 82.02°W
Report Text: KCLE 241151Z 21005KT 8SM BKN210 04/03 A3012 RMK AO2 SLP205 T00440028 10044 20022 50002
Loading
Personal Weather Stations






























Interactive Weather Map
Tropical Storm Tracking
New forecast layout! Learn more

10-Day Weather Forecast

Advertisements
Track Severe Weather on mobile